FNGI

Details ICAO FNGI (VPE)
Name NGIVA
Region Angola
Timezone Africa/Luanda (UTC+1.0)
Plans Departing 8
Arriving 9
Stats Elevation 3,566 ft / 1,087 m (AMSL)
Location -17.043465° 15.683824°
Runways 1
Magnetic Variation 7.181° W
Sunrise 2018-05-24 05:18:27 UTC / 2018-05-24 06:18:27 Local
Sunset 2018-05-24 16:32:37 UTC / 2018-05-24 17:32:37 Local
Advertisement - Login to hide

Runways

ID Width Length Bearing (true) Bearing (mag) Surface Threshold Offset Overrun Length
13 95 ft / 29 m 10,640 ft / 3,243 m 115.00° 122.18° Asphalt 0 ft / 0 m 200 ft / 61 m
31 95 ft / 29 m 10,640 ft / 3,243 m 294.99° 302.17° Asphalt 0 ft / 0 m 200 ft / 61 m

Map

Weather


0- 5 10 15 20 25 30 35+ Temperature / ° C

Clouds and Precipitation
Forecast for 2018-05-24 00:00 UTC. Updated 4 minutes ago

Ground ~20,000 ft ~40,000 ft Winds

METAR

Not found

TAF

TAF FNGI 231045Z 2312/2324 05012KT 9999 FEW022 BKN040 BECMG 2320/2322 11005KT 8000 SCT016

Frequencies

Tower 118.70 MHz AFIS
Warning: Do not use this data for real-world aviation or navigation. No guarantee of current accuracy is given.